createdAt,value
2019-02-19T00:02:41.671Z,48.75
2019-02-19T00:05:29.635Z,49.07
2019-02-19T00:08:17.891Z,49.02
2019-02-19T00:11:05.711Z,48.67
2019-02-19T00:13:53.739Z,49.10
2019-02-19T00:16:41.590Z,49.08
2019-02-19T00:19:29.507Z,49.68
2019-02-19T00:22:17.551Z,49.83
2019-02-19T00:25:05.505Z,50.27
2019-02-19T00:27:53.859Z,50.13
2019-02-19T00:30:41.491Z,50.18
2019-02-19T00:33:29.640Z,50.27
2019-02-19T00:36:17.319Z,50.18
2019-02-19T00:39:06.043Z,50.40
2019-02-19T00:41:54.005Z,50.32
2019-02-19T00:44:41.998Z,50.41
2019-02-19T00:47:30.109Z,50.50
2019-02-19T00:50:18.443Z,50.59
2019-02-19T00:53:06.411Z,50.36
2019-02-19T00:55:54.415Z,50.92
2019-02-19T00:58:42.238Z,50.79
2019-02-19T01:01:30.059Z,50.94
2019-02-19T01:04:17.793Z,51.23
2019-02-19T01:07:05.851Z,51.63
2019-02-19T01:09:54.036Z,52.15
2019-02-19T01:12:41.646Z,52.48
2019-02-19T01:15:29.701Z,52.37
2019-02-19T01:18:17.793Z,52.22
2019-02-19T01:21:05.833Z,52.27
2019-02-19T01:23:53.829Z,52.44
2019-02-19T01:26:41.903Z,52.29
2019-02-19T01:29:29.872Z,52.28
2019-02-19T01:32:17.736Z,52.55
2019-02-19T01:35:05.728Z,52.58
2019-02-19T01:37:53.649Z,52.79
2019-02-19T01:40:42.140Z,52.73
2019-02-19T01:43:29.938Z,52.64
2019-02-19T01:46:17.527Z,52.34
2019-02-19T01:49:05.482Z,52.18
2019-02-19T01:51:53.429Z,52.18
2019-02-19T01:54:41.725Z,52.16
2019-02-19T01:57:29.327Z,51.97
2019-02-19T02:00:17.177Z,51.89
2019-02-19T02:03:05.566Z,51.56
2019-02-19T02:05:53.345Z,51.60
2019-02-19T02:08:41.034Z,51.85
2019-02-19T02:11:28.701Z,51.74
2019-02-19T02:14:16.764Z,51.84
2019-02-19T02:17:04.568Z,52.24
2019-02-19T02:19:52.180Z,52.09
2019-02-19T02:22:40.511Z,52.21
2019-02-19T02:25:28.260Z,52.36
2019-02-19T02:28:16.010Z,51.62
2019-02-19T02:31:03.938Z,51.71
2019-02-19T02:33:51.886Z,52.04
2019-02-19T02:36:39.758Z,52.09
2019-02-19T02:39:27.643Z,51.92
2019-02-19T02:42:15.258Z,52.22
2019-02-19T02:45:03.492Z,51.94
2019-02-19T02:47:51.230Z,51.96
2019-02-19T02:50:39.447Z,52.40
2019-02-19T02:53:27.688Z,52.74
2019-02-19T02:56:15.393Z,52.91
2019-02-19T02:59:03.535Z,53.01
2019-02-19T03:01:51.673Z,53.38
2019-02-19T03:04:39.864Z,53.53
2019-02-19T03:07:40.079Z,52.70
2019-02-19T03:10:27.921Z,52.77
2019-02-19T03:13:15.864Z,53.37
2019-02-19T03:16:03.737Z,53.58
2019-02-19T03:18:51.974Z,53.50
2019-02-19T03:21:40.059Z,53.00
2019-02-19T03:24:27.904Z,53.26
2019-02-19T03:27:15.431Z,53.84
2019-02-19T03:30:03.790Z,53.97
2019-02-19T03:32:51.723Z,53.88
2019-02-19T03:35:39.688Z,54.10
2019-02-19T03:38:27.884Z,53.79
2019-02-19T03:41:16.064Z,53.39
2019-02-19T03:44:04.296Z,53.48
2019-02-19T03:46:52.360Z,53.84
2019-02-19T03:49:40.153Z,53.71
2019-02-19T03:52:27.748Z,53.67
2019-02-19T03:55:15.752Z,53.21
2019-02-19T03:58:03.882Z,53.78
2019-02-19T04:00:52.133Z,52.96
2019-02-19T04:03:39.737Z,52.76
2019-02-19T04:06:27.795Z,52.68
2019-02-19T04:09:15.677Z,52.94
2019-02-19T04:12:03.237Z,52.73
2019-02-19T04:14:51.594Z,53.24
2019-02-19T04:17:39.722Z,53.16
2019-02-19T04:20:27.823Z,53.38
2019-02-19T04:23:15.906Z,53.94
2019-02-19T04:26:03.817Z,54.12
2019-02-19T04:28:51.793Z,54.35
2019-02-19T04:31:39.442Z,54.94
2019-02-19T04:34:27.408Z,55.55
2019-02-19T04:37:15.612Z,56.21
2019-02-19T04:40:03.674Z,56.39
2019-02-19T04:42:51.719Z,56.73
2019-02-19T04:45:39.974Z,56.08
2019-02-19T04:48:28.183Z,56.11
2019-02-19T04:51:16.136Z,56.47
2019-02-19T04:54:04.016Z,56.59
2019-02-19T04:56:52.130Z,56.66
2019-02-19T04:59:40.023Z,57.24
2019-02-19T05:02:28.418Z,57.22
2019-02-19T05:05:16.417Z,57.55
2019-02-19T05:08:04.634Z,57.12
2019-02-19T05:10:52.542Z,57.39
2019-02-19T05:13:40.819Z,57.39
2019-02-19T05:16:28.901Z,57.76
2019-02-19T05:19:16.865Z,57.51
2019-02-19T05:22:04.497Z,57.72
2019-02-19T05:24:52.253Z,57.65
2019-02-19T05:27:40.414Z,57.58
2019-02-19T05:30:28.241Z,58.01
2019-02-19T05:33:16.546Z,58.35
2019-02-19T05:36:04.925Z,58.84
2019-02-19T05:38:53.129Z,58.96
2019-02-19T05:41:41.059Z,59.05
2019-02-19T05:44:29.266Z,59.51
2019-02-19T05:47:17.456Z,59.84
2019-02-19T05:50:05.875Z,59.85
2019-02-19T05:52:53.473Z,60.39
2019-02-19T05:55:41.632Z,60.94
2019-02-19T05:58:29.602Z,60.66
2019-02-19T06:01:17.636Z,60.55
2019-02-19T06:04:05.227Z,60.77
2019-02-19T06:06:53.348Z,60.16
2019-02-19T06:09:41.628Z,60.54
2019-02-19T06:12:29.790Z,60.40
2019-02-19T06:15:17.646Z,60.72
2019-02-19T06:18:05.536Z,60.84
2019-02-19T06:20:53.851Z,60.47
2019-02-19T06:23:41.746Z,61.00
2019-02-19T06:26:30.006Z,60.34
2019-02-19T06:29:17.713Z,59.18
2019-02-19T06:32:05.578Z,59.07
2019-02-19T06:34:53.671Z,59.21
2019-02-19T06:37:41.943Z,59.11
2019-02-19T06:40:30.349Z,58.93
2019-02-19T06:43:18.655Z,58.83
2019-02-19T06:46:06.302Z,58.49
2019-02-19T06:48:54.174Z,58.24
2019-02-19T06:51:41.786Z,58.02
2019-02-19T06:54:29.678Z,57.16
2019-02-19T06:57:17.604Z,56.73
2019-02-19T07:00:06.071Z,55.76
2019-02-19T07:03:20.712Z,54.21
2019-02-19T07:06:08.240Z,54.15
2019-02-19T07:08:56.277Z,53.95
2019-02-19T07:11:44.227Z,54.06
2019-02-19T07:14:32.469Z,54.09
2019-02-19T07:17:20.002Z,53.66
2019-02-19T07:20:07.624Z,53.48
2019-02-19T07:22:55.941Z,53.23
2019-02-19T07:25:43.910Z,53.08
2019-02-19T07:28:31.673Z,52.22
2019-02-19T07:31:19.591Z,50.40
2019-02-19T07:34:07.263Z,47.78
2019-02-19T07:36:55.539Z,45.73
2019-02-19T07:39:43.323Z,44.56
2019-02-19T07:42:30.875Z,43.05
2019-02-19T07:45:18.823Z,42.27
2019-02-19T07:48:06.651Z,42.01
2019-02-19T07:50:54.456Z,42.27
2019-02-19T07:53:42.259Z,41.29
2019-02-19T07:56:30.149Z,41.03
2019-02-19T07:59:18.446Z,41.63
2019-02-19T08:02:06.612Z,41.54
2019-02-19T08:04:54.574Z,41.60
2019-02-19T08:07:42.631Z,41.07
2019-02-19T08:10:30.757Z,41.36
2019-02-19T08:13:18.895Z,42.19
2019-02-19T08:16:06.669Z,41.78
2019-02-19T08:18:54.585Z,41.68
2019-02-19T08:21:42.440Z,41.87
2019-02-19T08:24:30.335Z,42.17
2019-02-19T08:27:18.601Z,41.95
2019-02-19T08:30:06.950Z,42.39
2019-02-19T08:32:54.728Z,42.54
2019-02-19T08:35:42.500Z,41.86
2019-02-19T08:38:30.364Z,42.06
2019-02-19T08:41:18.274Z,41.97
2019-02-19T08:44:08.401Z,41.94
2019-02-19T08:46:56.032Z,41.54
2019-02-19T08:49:43.681Z,41.15
2019-02-19T08:52:31.608Z,41.07
2019-02-19T08:55:19.225Z,40.95
2019-02-19T08:58:07.339Z,41.00
2019-02-19T09:00:55.263Z,40.96
2019-02-19T09:03:43.454Z,40.64
2019-02-19T09:06:31.675Z,41.06
2019-02-19T09:09:19.698Z,40.94
2019-02-19T09:12:07.666Z,40.35
2019-02-19T09:14:55.775Z,39.71
2019-02-19T09:17:51.684Z,40.05
2019-02-19T09:20:33.430Z,40.42
2019-02-19T09:23:21.391Z,39.92
2019-02-19T09:26:09.559Z,39.67
2019-02-19T09:28:57.554Z,40.27
2019-02-19T09:34:19.639Z,40.26
2019-02-19T09:37:08.001Z,40.44
2019-02-19T09:39:56.286Z,40.24
2019-02-19T09:42:44.406Z,39.80
2019-02-19T09:45:32.346Z,40.06
2019-02-19T09:48:20.646Z,40.02
2019-02-19T09:51:08.539Z,40.10
2019-02-19T09:53:56.661Z,40.25
2019-02-19T09:56:44.563Z,40.91
2019-02-19T09:59:32.805Z,41.19
2019-02-19T10:02:21.316Z,40.40
2019-02-19T10:05:10.461Z,40.57
2019-02-19T10:07:58.847Z,40.46
2019-02-19T10:10:46.780Z,40.06
2019-02-19T10:13:34.788Z,39.95
2019-02-19T10:16:22.584Z,39.61
2019-02-19T10:19:10.719Z,39.90
2019-02-19T10:21:58.350Z,39.39
2019-02-19T10:24:46.350Z,39.95
2019-02-19T10:27:34.471Z,39.77
2019-02-19T10:30:22.367Z,39.50
2019-02-19T10:33:10.630Z,39.65
2019-02-19T10:35:58.709Z,39.13
2019-02-19T10:38:46.811Z,38.97
2019-02-19T10:41:34.788Z,38.58
2019-02-19T10:44:22.370Z,38.83
2019-02-19T10:47:10.458Z,39.71
2019-02-19T10:49:58.706Z,39.02
2019-02-19T10:52:46.516Z,39.04
2019-02-19T10:55:34.470Z,38.78
2019-02-19T10:58:23.346Z,38.76
2019-02-19T11:01:11.541Z,39.36
2019-02-19T11:03:59.737Z,39.42
2019-02-19T11:06:47.993Z,39.28
2019-02-19T11:09:36.439Z,39.08
2019-02-19T11:12:24.782Z,38.96
2019-02-19T11:15:12.920Z,38.44
2019-02-19T11:18:00.472Z,38.43
2019-02-19T11:20:48.662Z,38.18
2019-02-19T11:23:36.863Z,37.95
2019-02-19T11:26:24.836Z,37.73
2019-02-19T11:29:12.975Z,37.76
2019-02-19T11:32:01.136Z,37.37
2019-02-19T11:34:49.643Z,37.58
2019-02-19T11:37:37.587Z,37.66
2019-02-19T11:40:25.846Z,37.07
2019-02-19T11:43:13.852Z,37.45
2019-02-19T11:46:01.905Z,37.41
2019-02-19T11:48:49.729Z,37.17
2019-02-19T11:51:37.871Z,37.22
2019-02-19T11:54:25.437Z,37.17
2019-02-19T11:57:13.825Z,37.19
2019-02-19T12:00:01.882Z,37.63
2019-02-19T12:02:50.151Z,36.50
2019-02-19T12:05:38.195Z,36.86
2019-02-19T12:08:26.179Z,36.84
2019-02-19T12:11:14.623Z,37.53
2019-02-19T12:14:02.897Z,37.26
2019-02-19T12:16:50.381Z,36.91
2019-02-19T12:19:38.597Z,36.51
2019-02-19T12:22:26.563Z,36.61
2019-02-19T12:25:14.799Z,37.20
2019-02-19T12:28:02.928Z,36.75
2019-02-19T12:30:50.537Z,37.07
2019-02-19T13:06:36.698Z,37.12
2019-02-19T14:27:10.997Z,37.94
2019-02-19T14:30:16.998Z,37.66
2019-02-19T14:33:33.231Z,37.95
2019-02-19T14:57:48.992Z,36.86
2019-02-19T15:00:55.747Z,36.86
2019-02-19T15:04:11.494Z,36.90
2019-02-19T15:07:23.941Z,36.89
2019-02-19T15:10:36.353Z,37.22
2019-02-19T15:13:37.927Z,37.45
2019-02-19T15:16:50.755Z,37.27
2019-02-19T15:19:53.447Z,37.39
2019-02-19T15:23:02.794Z,37.21
2019-02-19T15:26:08.799Z,37.51
2019-02-19T15:29:18.630Z,37.46
2019-02-19T15:32:17.022Z,37.38
2019-02-19T15:35:24.962Z,37.70
2019-02-19T15:38:34.868Z,38.00
2019-02-19T15:41:41.647Z,38.07
2019-02-19T15:44:54.055Z,37.90
2019-02-19T15:48:06.563Z,37.87
2019-02-19T15:51:25.915Z,37.98
2019-02-19T15:54:32.576Z,38.56
2019-02-19T15:57:39.446Z,38.58
2019-02-19T16:01:04.868Z,38.60
2019-02-19T16:03:58.564Z,38.66
2019-02-19T16:07:08.470Z,39.05
2019-02-19T16:10:01.667Z,39.31
2019-02-19T16:13:12.051Z,39.46
2019-02-19T16:16:37.389Z,39.64
2019-02-19T16:19:43.828Z,39.83
2019-02-19T16:22:38.624Z,39.82
2019-02-19T16:25:57.364Z,39.90
2019-02-19T16:29:08.673Z,39.93
2019-02-19T16:32:18.500Z,40.10
2019-02-19T16:35:34.706Z,40.17
2019-02-19T16:38:40.020Z,40.46
2019-02-19T16:42:02.295Z,40.87
2019-02-19T16:45:02.319Z,40.99
2019-02-19T16:48:24.381Z,40.34
2019-02-19T16:51:30.842Z,40.29
2019-02-19T16:54:37.699Z,40.69
2019-02-19T16:57:36.720Z,40.97
2019-02-19T17:00:55.268Z,41.37
2019-02-19T17:04:03.452Z,41.58
2019-02-19T17:07:13.403Z,41.66
2019-02-19T17:10:25.954Z,41.32
2019-02-19T17:13:38.436Z,41.68
2019-02-19T17:16:45.082Z,41.96
2019-02-19T17:19:55.046Z,42.13
2019-02-19T17:23:00.810Z,42.47
2019-02-19T17:26:07.844Z,42.72
2019-02-19T17:29:03.633Z,43.02
2019-02-19T17:32:02.778Z,43.47
2019-02-19T17:35:01.225Z,43.71
2019-02-19T17:38:17.341Z,43.84
2019-02-19T17:41:17.187Z,44.08
2019-02-19T17:44:10.767Z,43.68
2019-02-19T17:47:23.364Z,43.66
2019-02-19T17:50:28.473Z,43.90
2019-02-19T17:53:47.212Z,43.32
2019-02-19T17:57:05.705Z,43.73
2019-02-19T18:00:11.239Z,44.08
2019-02-19T18:03:11.567Z,44.59
2019-02-19T18:06:10.737Z,44.34
2019-02-19T18:09:17.634Z,44.38
2019-02-19T18:12:23.659Z,44.15
2019-02-19T18:15:36.599Z,44.19
2019-02-19T18:18:49.152Z,44.21
2019-02-19T18:21:37.349Z,44.18
2019-02-19T18:24:25.576Z,44.76
2019-02-19T18:27:13.874Z,44.96
2019-02-19T18:30:01.901Z,44.64
2019-02-19T18:32:49.976Z,44.96
2019-02-19T18:35:37.818Z,45.04
2019-02-19T18:38:26.078Z,45.13
2019-02-19T18:41:14.118Z,45.33
2019-02-19T18:44:02.231Z,45.08
2019-02-19T18:46:50.345Z,45.21
2019-02-19T18:49:38.487Z,44.99
2019-02-19T18:52:26.160Z,45.11
2019-02-19T18:55:14.234Z,45.12
2019-02-19T18:58:02.083Z,45.33
2019-02-19T19:00:50.348Z,45.11
2019-02-19T19:03:38.585Z,44.95
2019-02-19T19:06:26.940Z,44.83
2019-02-19T19:09:14.738Z,44.94
2019-02-19T19:12:02.598Z,45.06
2019-02-19T19:14:50.397Z,45.26
2019-02-19T19:17:38.442Z,45.59
2019-02-19T19:20:26.818Z,45.69
2019-02-19T19:23:14.816Z,45.26
2019-02-19T19:26:02.912Z,45.11
2019-02-19T19:28:50.930Z,45.89
2019-02-19T19:31:39.052Z,46.63
2019-02-19T19:34:26.986Z,47.62
2019-02-19T19:37:15.339Z,48.23
2019-02-19T19:40:03.234Z,48.59
2019-02-19T19:42:51.115Z,48.71
2019-02-19T19:45:39.043Z,48.85
2019-02-19T19:48:27.013Z,48.68
2019-02-19T19:51:17.307Z,48.41
2019-02-19T19:54:04.480Z,48.27
2019-02-19T19:56:52.666Z,48.00
2019-02-19T19:59:40.728Z,47.66
2019-02-19T20:02:28.936Z,47.54
2019-02-19T20:05:17.146Z,47.62
2019-02-19T20:08:04.962Z,47.59
2019-02-19T20:10:53.293Z,47.73
2019-02-19T20:13:41.338Z,47.51
2019-02-19T20:16:29.382Z,47.50
2019-02-19T20:19:17.213Z,47.59
2019-02-19T20:22:05.072Z,47.92
2019-02-19T20:24:53.123Z,47.92
2019-02-19T20:27:41.274Z,48.15
2019-02-19T20:30:29.265Z,47.88
2019-02-19T20:33:17.444Z,47.97
2019-02-19T20:36:05.643Z,48.19
2019-02-19T20:38:53.895Z,47.99
2019-02-19T20:41:41.732Z,47.72
2019-02-19T20:44:29.695Z,47.51
2019-02-19T20:47:17.662Z,47.87
2019-02-19T20:50:06.207Z,48.00
2019-02-19T20:52:54.395Z,48.02
2019-02-19T20:55:42.645Z,48.26
2019-02-19T20:58:30.651Z,48.57
2019-02-19T21:01:18.903Z,48.51
2019-02-19T21:04:06.902Z,48.26
2019-02-19T21:06:55.025Z,48.30
2019-02-19T21:09:44.090Z,48.35
2019-02-19T21:12:31.975Z,47.92
2019-02-19T21:15:20.266Z,48.64
2019-02-19T21:18:08.164Z,48.99
2019-02-19T21:20:56.337Z,49.10
2019-02-19T21:23:44.676Z,49.34
2019-02-19T21:26:32.634Z,49.61
2019-02-19T21:29:20.604Z,50.12
2019-02-19T21:32:08.620Z,50.29
2019-02-19T21:34:57.047Z,49.87
2019-02-19T21:37:45.191Z,49.90
2019-02-19T21:40:33.247Z,49.86
2019-02-19T21:43:21.056Z,50.26
2019-02-19T21:46:09.374Z,50.24
2019-02-19T21:48:57.499Z,50.52
2019-02-19T21:51:53.715Z,50.41
2019-02-19T21:54:35.123Z,50.15
2019-02-19T21:57:23.103Z,50.09
2019-02-19T22:00:13.227Z,49.76
2019-02-19T22:03:01.189Z,49.67
2019-02-19T22:05:49.343Z,49.64
2019-02-19T22:08:37.142Z,50.00
2019-02-19T22:11:25.108Z,49.91
2019-02-19T22:14:13.091Z,49.55
2019-02-19T22:17:01.281Z,49.48
2019-02-19T22:19:48.913Z,49.48
2019-02-19T22:22:36.857Z,49.49
2019-02-19T22:25:24.786Z,49.49
2019-02-19T22:28:12.965Z,49.61
2019-02-19T22:31:00.864Z,50.02
2019-02-19T22:33:49.089Z,49.85
2019-02-19T22:36:36.855Z,49.85
2019-02-19T22:39:24.940Z,49.76
2019-02-19T22:42:12.712Z,49.98
2019-02-19T22:45:00.677Z,49.31
2019-02-19T22:47:53.399Z,49.15
2019-02-19T22:50:37.705Z,48.93
2019-02-19T22:53:43.532Z,49.20
2019-02-19T22:56:37.763Z,49.11
2019-02-19T22:59:25.736Z,49.08
2019-02-19T23:02:16.982Z,49.15
2019-02-19T23:05:06.077Z,49.49
2019-02-19T23:07:54.558Z,49.44
2019-02-19T23:10:42.907Z,49.25
2019-02-19T23:13:30.840Z,49.63
2019-02-19T23:16:19.129Z,49.38
2019-02-19T23:19:07.124Z,49.57
2019-02-19T23:21:55.346Z,49.51
2019-02-19T23:24:43.413Z,49.35
2019-02-19T23:27:31.302Z,49.30
2019-02-19T23:30:19.405Z,49.82
2019-02-19T23:33:07.557Z,49.66
2019-02-19T23:36:08.386Z,49.62
2019-02-19T23:38:56.629Z,49.73
2019-02-19T23:41:44.723Z,50.07
2019-02-19T23:44:32.551Z,50.14
2019-02-19T23:47:20.855Z,49.80
2019-02-19T23:50:09.095Z,50.15
2019-02-19T23:52:57.639Z,50.38
2019-02-19T23:55:45.991Z,50.88
2019-02-19T23:58:34.098Z,51.37
